Time;durP1;ratioP1;P1;durP2;ratioP2;P2;SDS_P1;SDS_P2;PMS_P1;PMS_P2;Temp;Humidity;BMP_temperature;BMP_pressure;BME280_temperature;BME280_humidity;BME280_pressure;Samples;Min_cycle;Max_cycle;Signal;HPM_P1;HPM_P2
2023/09/24 00:02:10;;;;;;;2.25;2.25;;;;;;;20.36;78.09;96867.81;4890519;29;20097;-66
2023/09/24 00:04:37;;;;;;;2.28;2.28;;;;;;;18.05;77.45;96508.69;4890871;29;20060;-64
2023/09/24 00:07:05;;;;;;;2.10;2.10;;;;;;;20.20;77.71;96861.38;4890785;29;20080;-65
2023/09/24 00:09:32;;;;;;;2.33;2.33;;;;;;;20.04;77.01;96878.19;4890781;29;20136;-65
2023/09/24 00:11:59;;;;;;;2.38;2.33;;;;;;;19.30;76.78;96762.59;4890235;29;20066;-68
2023/09/24 00:14:26;;;;;;;1.98;1.98;;;;;;;19.92;76.82;96861.97;4890472;29;20470;-65
2023/09/24 00:16:53;;;;;;;2.15;2.15;;;;;;;19.74;77.17;96870.03;4873885;29;20163;-64
2023/09/24 00:19:19;;;;;;;2.05;2.05;;;;;;;19.64;77.75;96865.41;4890442;29;20060;-65
2023/09/24 00:21:49;;;;;;;1.83;1.83;;;;;;;19.49;78.56;96862.91;4889328;29;20065;-65
2023/09/24 00:24:17;;;;;;;2.20;2.20;;;;;;;19.09;79.26;96813.56;4873633;29;20079;-65
2023/09/24 00:26:45;;;;;;;2.10;2.10;;;;;;;19.32;80.03;96861.25;4873128;29;20508;-67
2023/09/24 00:29:12;;;;;;;2.00;2.00;;;;;;;19.40;80.06;96868.31;4890032;29;20532;-66
2023/09/24 00:31:39;;;;;;;1.90;1.90;;;;;;;19.30;80.12;96869.31;4873417;29;20094;-65
2023/09/24 00:34:06;;;;;;;1.92;1.92;;;;;;;19.16;78.91;96824.63;4873398;29;20092;-65
2023/09/24 00:36:36;;;;;;;1.90;1.90;;;;;;;19.40;79.67;96868.31;4890047;29;20071;-66
2023/09/24 00:39:02;;;;;;;1.85;1.85;;;;;;;19.30;79.95;96869.31;4873186;29;20105;-65
2023/09/24 00:41:29;;;;;;;1.75;1.75;;;;;;;19.18;80.66;96883.19;4889989;29;20052;-66
2023/09/24 00:44:00;;;;;;;2.00;2.00;;;;;;;19.17;80.65;96890.81;4889523;29;20124;-66
2023/09/24 00:46:27;;;;;;;2.03;2.03;;;;;;;19.15;80.44;96870.81;4873016;29;20059;-68
2023/09/24 00:48:57;;;;;;;2.00;2.00;;;;;;;17.68;80.84;96657.50;4892066;29;20508;-67
2023/09/24 00:51:26;;;;;;;2.13;2.13;;;;;;;19.10;81.29;96881.72;4908531;29;20071;-65
2023/09/24 00:53:54;;;;;;;1.98;1.98;;;;;;;18.58;80.99;96793.69;4908612;29;20052;-64
2023/09/24 00:56:22;;;;;;;2.10;2.10;;;;;;;18.74;80.94;96819.84;4908739;29;20059;-64
2023/09/24 00:58:52;;;;;;;1.83;1.83;;;;;;;19.29;80.86;96883.78;4891475;29;20163;-65
2023/09/24 01:01:24;;;;;;;1.85;1.85;;;;;;;19.14;81.75;96872.00;4908964;29;20058;-65
2023/09/24 01:03:52;;;;;;;1.92;1.92;;;;;;;18.98;82.67;96883.16;4891217;29;20295;-65
2023/09/24 01:06:20;;;;;;;1.90;1.90;;;;;;;19.15;81.30;96881.25;4908394;29;20060;-65
2023/09/24 01:08:48;;;;;;;2.13;2.13;;;;;;;19.10;81.30;96876.13;4907891;29;20067;-68
2023/09/24 01:11:15;;;;;;;2.00;2.00;;;;;;;18.94;82.43;96862.78;4908419;29;20060;-65
2023/09/24 01:13:44;;;;;;;1.90;1.90;;;;;;;19.01;83.98;96868.28;4908392;29;20504;-66
2023/09/24 01:16:11;;;;;;;1.95;1.95;;;;;;;19.08;84.85;96873.72;4907963;29;20163;-66
2023/09/24 01:18:41;;;;;;;1.80;1.80;;;;;;;18.94;84.88;96854.34;4907378;29;20115;-67
2023/09/24 01:21:14;;;;;;;1.80;1.80;;;;;;;18.85;84.18;96878.59;4890927;29;20051;-65
2023/09/24 01:23:45;;;;;;;1.88;1.88;;;;;;;18.70;84.40;96869.63;4891149;29;20056;-66
2023/09/24 01:26:13;;;;;;;1.75;1.75;;;;;;;18.12;86.43;96825.31;4907783;29;20063;-64
2023/09/24 01:28:40;;;;;;;1.70;1.70;;;;;;;18.30;87.62;96862.28;4908347;29;20103;-64
2023/09/24 01:31:08;;;;;;;1.83;1.83;;;;;;;17.90;87.13;96793.22;4907914;29;20063;-65
2023/09/24 01:33:38;;;;;;;1.70;1.70;;;;;;;18.46;86.51;96870.88;4907578;29;20301;-66
2023/09/24 01:36:10;;;;;;;2.00;2.00;;;;;;;18.49;85.81;96875.63;4907609;29;20052;-65
2023/09/24 01:38:41;;;;;;;1.77;1.77;;;;;;;18.48;85.80;96867.63;4906166;29;20146;-65
2023/09/24 01:41:10;;;;;;;1.80;1.80;;;;;;;18.49;85.51;96867.19;4907361;29;20164;-65
2023/09/24 01:43:39;;;;;;;2.05;2.05;;;;;;;18.44;85.56;96862.06;4907731;29;20443;-65
2023/09/24 01:46:07;;;;;;;1.80;1.80;;;;;;;17.91;85.67;96789.19;4907985;29;20160;-65
2023/09/24 01:48:35;;;;;;;1.85;1.85;;;;;;;18.49;85.71;96866.41;4890675;29;20142;-64
2023/09/24 01:51:10;;;;;;;2.08;2.08;;;;;;;18.53;85.59;96867.91;4872358;29;20144;-66
2023/09/24 01:53:38;;;;;;;2.00;2.00;;;;;;;18.23;85.87;96825.94;4889035;29;20055;-67
2023/09/24 01:56:07;;;;;;;1.60;1.60;;;;;;;18.47;85.73;96878.03;4871953;29;20057;-67
2023/09/24 01:58:37;;;;;;;1.90;1.90;;;;;;;18.60;86.13;96859.41;4888901;29;20518;-65
2023/09/24 02:01:06;;;;;;;1.92;1.92;;;;;;;18.60;85.46;96836.94;4889077;29;20060;-66
2023/09/24 02:03:34;;;;;;;1.92;1.92;;;;;;;18.79;86.34;96860.66;4888936;29;20512;-65
2023/09/24 02:06:03;;;;;;;1.90;1.90;;;;;;;18.48;87.50;96826.31;4888766;29;20057;-66
2023/09/24 02:08:30;;;;;;;1.70;1.70;;;;;;;18.85;87.36;96865.34;4888795;29;20730;-65
2023/09/24 02:10:58;;;;;;;1.98;1.98;;;;;;;18.76;88.38;96867.91;4889036;29;20064;-66
2023/09/24 02:13:26;;;;;;;1.77;1.77;;;;;;;18.53;88.17;96819.44;4889003;29;20061;-67
2023/09/24 02:15:53;;;;;;;1.80;1.80;;;;;;;18.95;87.82;96869.19;4887887;29;20480;-65
2023/09/24 02:18:21;;;;;;;1.98;1.98;;;;;;;18.24;86.61;96748.97;4888419;29;20574;-64
2023/09/24 02:20:51;;;;;;;1.80;1.80;;;;;;;19.07;86.05;96860.94;4888627;29;20057;-67
2023/09/24 02:23:20;;;;;;;2.00;2.00;;;;;;;18.83;87.80;96870.59;4858756;29;20144;-65
2023/09/24 02:25:48;;;;;;;1.90;1.90;;;;;;;17.81;86.86;96706.88;4876380;29;20568;-66
2023/09/24 02:28:18;;;;;;;1.85;1.85;;;;;;;18.74;85.82;96861.94;4888696;29;20064;-66
2023/09/24 02:30:46;;;;;;;1.85;1.85;;;;;;;18.68;83.79;96849.63;4888456;29;20542;-65
2023/09/24 02:33:13;;;;;;;2.03;2.03;;;;;;;18.61;83.37;96849.75;4888839;29;20067;-65
2023/09/24 02:35:40;;;;;;;1.80;1.80;;;;;;;18.28;85.68;96859.09;4888698;29;20103;-66
2023/09/24 02:38:10;;;;;;;2.00;2.00;;;;;;;17.87;86.57;96810.88;4888475;29;20071;-66
2023/09/24 02:40:38;;;;;;;1.73;1.73;;;;;;;18.17;85.51;96840.84;4888720;29;20155;-65
2023/09/24 02:43:06;;;;;;;1.90;1.90;;;;;;;17.96;87.00;96841.97;4888959;29;20143;-65
2023/09/24 02:45:33;;;;;;;1.65;1.65;;;;;;;17.96;87.65;96841.97;4874141;29;20160;-65
2023/09/24 02:48:00;;;;;;;1.90;1.90;;;;;;;17.71;87.66;96799.50;4892127;29;20509;-68
2023/09/24 02:50:28;;;;;;;1.70;1.70;;;;;;;17.66;88.97;96844.81;4903636;29;20056;-65
2023/09/24 02:52:59;;;;;;;1.60;1.60;;;;;;;17.24;89.33;96772.56;4910868;29;20055;-66
2023/09/24 02:55:29;;;;;;;1.70;1.70;;;;;;;17.84;88.78;96839.75;4910719;29;20087;-65
2023/09/24 02:57:56;;;;;;;1.70;1.70;;;;;;;17.79;89.22;96854.25;4893781;29;20583;-64
2023/09/24 03:00:35;;;;;;;1.70;1.70;;;;;;;17.82;89.10;96844.97;4910221;29;20171;-66
2023/09/24 03:03:07;;;;;;;1.70;1.70;;;;;;;17.71;89.40;96825.53;4893429;29;20733;-66
2023/09/24 03:05:34;;;;;;;1.73;1.73;;;;;;;17.88;88.51;96844.09;4910416;29;20052;-65
2023/09/24 03:08:02;;;;;;;1.67;1.67;;;;;;;17.91;89.02;96851.66;4893714;29;20502;-65
2023/09/24 03:10:31;;;;;;;1.80;1.80;;;;;;;17.85;89.44;96853.34;4885102;29;20060;-69
2023/09/24 03:12:58;;;;;;;1.80;1.80;;;;;;;17.82;89.49;96836.56;4872743;29;20060;-66
2023/09/24 03:15:26;;;;;;;1.90;1.90;;;;;;;18.01;89.16;96861.13;4872705;29;20068;-67
2023/09/24 03:17:53;;;;;;;1.88;1.88;;;;;;;17.80;88.63;96831.41;4872749;29;20548;-65
2023/09/24 03:20:21;;;;;;;1.80;1.80;;;;;;;17.69;89.12;96821.56;4872667;29;20064;-67
2023/09/24 03:22:53;;;;;;;1.60;1.60;;;;;;;18.01;88.80;96844.31;4879813;29;20049;-65
2023/09/24 03:25:25;;;;;;;2.00;2.00;;;;;;;16.75;88.64;96641.69;4874557;29;20136;-65
2023/09/24 03:27:58;;;;;;;1.63;1.63;;;;;;;18.08;89.12;96866.63;4890973;29;20139;-65
2023/09/24 03:30:25;;;;;;;1.80;1.80;;;;;;;18.16;88.82;96872.91;4858377;29;20049;-64
2023/09/24 03:32:53;;;;;;;1.77;1.77;;;;;;;18.08;89.41;96877.84;4872529;29;20509;-65
2023/09/24 03:35:25;;;;;;;1.77;1.77;;;;;;;18.10;89.16;96875.38;4872663;29;20101;-65
2023/09/24 03:37:54;;;;;;;1.85;1.85;;;;;;;17.76;89.75;96822.25;4872875;29;20057;-64
2023/09/24 03:40:23;;;;;;;1.80;1.80;;;;;;;18.10;89.73;96881.00;4872647;29;20141;-64
2023/09/24 03:42:50;;;;;;;1.60;1.60;;;;;;;17.74;89.59;96844.31;4872099;29;20056;-66
2023/09/24 03:45:19;;;;;;;1.90;1.90;;;;;;;17.98;90.08;96884.38;4861765;29;20623;-65
2023/09/24 03:47:46;;;;;;;1.75;1.75;;;;;;;18.00;89.44;96893.94;4872222;29;20128;-66
2023/09/24 03:50:16;;;;;;;1.80;1.80;;;;;;;17.58;89.51;96857.31;4878541;29;20139;-66
2023/09/24 03:52:44;;;;;;;1.77;1.77;;;;;;;17.56;90.67;96904.59;4874000;29;20943;-64
2023/09/24 03:55:12;;;;;;;1.60;1.60;;;;;;;16.74;95.86;96872.28;4873597;29;20469;-65
2023/09/24 03:57:39;;;;;;;1.48;1.48;;;;;;;14.60;97.92;96589.91;4889771;29;20053;-65
2023/09/24 04:00:15;;;;;;;1.65;1.65;;;;;;;16.46;98.68;96885.31;4890614;29;20079;-64
2023/09/24 04:02:46;;;;;;;1.50;1.50;;;;;;;16.18;99.07;96857.56;4874029;29;20092;-67
2023/09/24 04:05:17;;;;;;;1.48;1.48;;;;;;;16.77;97.83;96899.44;4890243;29;20084;-67
2023/09/24 04:07:46;;;;;;;1.55;1.55;;;;;;;16.81;96.06;96889.00;4890054;29;20060;-65
2023/09/24 04:10:16;;;;;;;1.40;1.40;;;;;;;17.03;95.60;96907.16;4873643;29;20071;-65
2023/09/24 04:12:46;;;;;;;1.63;1.63;;;;;;;17.15;93.57;96904.63;4890526;29;20132;-68
2023/09/24 04:15:18;;;;;;;1.50;1.50;;;;;;;16.75;96.41;96907.44;4890489;29;20092;-66
2023/09/24 04:17:49;;;;;;;1.70;1.70;;;;;;;16.73;97.46;96915.44;4873521;29;20088;-66
2023/09/24 04:20:20;;;;;;;1.40;1.40;;;;;;;16.61;96.94;96900.75;4890289;29;20094;-66
2023/09/24 04:22:48;;;;;;;1.50;1.50;;;;;;;16.55;96.32;96885.63;4888766;29;20052;-66
2023/09/24 04:25:24;;;;;;;1.60;1.60;;;;;;;16.71;96.38;96906.69;4889951;29;20143;-65
2023/09/24 04:27:51;;;;;;;1.63;1.63;;;;;;;16.94;95.41;96926.44;4890283;29;20064;-64
2023/09/24 04:30:19;;;;;;;1.60;1.60;;;;;;;17.01;94.34;96915.19;4904929;29;20060;-63
2023/09/24 04:32:52;;;;;;;1.40;1.40;;;;;;;17.37;92.50;96930.38;4891752;29;20052;-65
2023/09/24 04:35:21;;;;;;;1.70;1.70;;;;;;;16.71;92.33;96806.00;4891609;29;20144;-65
2023/09/24 04:37:51;;;;;;;1.70;1.70;;;;;;;17.52;92.42;96929.84;4908645;29;20060;-66
2023/09/24 04:40:19;;;;;;;1.75;1.75;;;;;;;17.72;91.61;96924.41;4908980;29;20048;-65
2023/09/24 04:42:47;;;;;;;1.88;1.88;;;;;;;17.55;90.57;96877.78;4908844;29;20071;-66
2023/09/24 04:45:14;;;;;;;1.73;1.73;;;;;;;18.05;89.56;96918.72;4908599;29;20059;-66
2023/09/24 04:47:42;;;;;;;1.85;1.85;;;;;;;18.11;88.95;96922.63;4908809;29;20071;-64
2023/09/24 04:50:12;;;;;;;1.88;1.88;;;;;;;18.13;90.28;96919.41;4903078;29;20052;-65
2023/09/24 04:52:47;;;;;;;1.90;1.90;;;;;;;18.36;91.29;96916.66;4873330;29;20436;-64
2023/09/24 04:55:14;;;;;;;;;;;;;;;18.29;92.36;96924.41;4889881;29;20056;-63
2023/09/24 04:57:44;;;;;;;1.85;1.85;;;;;;;18.13;93.90;96923.00;4889583;29;20026;-65
2023/09/24 05:00:13;;;;;;;1.95;1.95;;;;;;;16.49;94.04;96649.63;4889834;29;20547;-64
2023/09/24 05:02:39;;;;;;;1.80;1.80;;;;;;;18.47;92.46;96920.13;4889306;29;20429;-65
2023/09/24 05:05:07;;;;;;;2.00;2.00;;;;;;;18.68;91.31;96922.59;4889537;29;20060;-66
2023/09/24 05:07:34;;;;;;;1.67;1.67;;;;;;;18.85;90.31;96910.28;4872399;29;20365;-66
2023/09/24 05:10:00;;;;;;;1.88;1.88;;;;;;;18.97;90.19;96923.69;4889517;29;20544;-65
2023/09/24 05:12:27;;;;;;;1.88;1.88;;;;;;;18.65;90.15;96888.97;4889222;29;20554;-65
2023/09/24 05:14:54;;;;;;;1.90;1.90;;;;;;;18.94;91.01;96924.53;4872230;29;20053;-67
2023/09/24 05:17:21;;;;;;;1.77;1.77;;;;;;;19.19;90.27;96924.09;4872540;29;20163;-66
2023/09/24 05:19:47;;;;;;;1.65;1.65;;;;;;;19.26;90.28;96930.38;4872369;29;20061;-67
2023/09/24 05:22:14;;;;;;;2.25;2.25;;;;;;;19.28;89.97;96927.16;4889286;29;20177;-65
2023/09/24 05:24:41;;;;;;;2.08;2.08;;;;;;;19.55;89.50;96937.03;4889408;29;20056;-66
2023/09/24 05:27:08;;;;;;;2.00;2.00;;;;;;;19.70;88.19;96937.56;4872313;29;20088;-66
2023/09/24 05:29:35;;;;;;;1.63;1.63;;;;;;;19.61;87.21;96880.34;4889170;29;20060;-66
2023/09/24 05:32:02;;;;;;;1.90;1.90;;;;;;;19.43;86.01;96839.38;4889240;29;20096;-66
2023/09/24 05:34:29;;;;;;;1.90;1.90;;;;;;;20.20;83.51;96931.69;4889498;29;20115;-69
2023/09/24 05:36:56;;;;;;;2.17;2.17;;;;;;;20.44;81.46;96942.38;4889369;29;20545;-66
2023/09/24 05:39:22;;;;;;;2.10;2.10;;;;;;;20.52;80.50;96940.19;4889072;29;20075;-66
2023/09/24 05:41:49;;;;;;;2.08;2.08;;;;;;;20.55;79.98;96936.53;4888996;29;20060;-67
2023/09/24 05:44:17;;;;;;;1.85;1.85;;;;;;;20.64;80.02;96942.31;4888388;29;20049;-66
2023/09/24 05:46:44;;;;;;;2.30;2.30;;;;;;;20.54;79.45;96930.09;4872137;29;20068;-63
2023/09/24 05:49:11;;;;;;;2.10;2.10;;;;;;;20.35;78.42;96871.06;4871882;29;20612;-66
2023/09/24 05:51:37;;;;;;;2.22;2.22;;;;;;;20.88;78.27;96950.16;4888857;29;20056;-65
2023/09/24 05:54:04;;;;;;;2.33;2.30;;;;;;;19.50;79.23;96771.78;4907304;29;20048;-66
2023/09/24 05:56:31;;;;;;;2.10;2.10;;;;;;;20.62;79.83;96925.06;4907527;29;20068;-66
2023/09/24 05:58:58;;;;;;;2.15;2.15;;;;;;;20.86;80.23;97025.06;4906218;29;20063;-67
2023/09/24 06:01:24;;;;;;;2.15;2.15;;;;;;;20.57;79.42;96866.47;4907503;29;20143;-67
2023/09/24 06:03:51;;;;;;;2.00;2.00;;;;;;;21.17;79.10;96944.63;4907684;29;20055;-65
2023/09/24 06:06:19;;;;;;;2.28;2.25;;;;;;;21.05;78.29;96899.47;4907660;29;20056;-65
2023/09/24 06:08:45;;;;;;;2.22;2.22;;;;;;;21.45;77.40;96915.66;4890334;29;20115;-67
2023/09/24 06:11:13;;;;;;;2.03;2.03;;;;;;;21.63;76.01;96915.97;4904765;29;20052;-65
2023/09/24 06:13:40;;;;;;;2.30;2.30;;;;;;;21.82;75.76;96920.69;4883177;29;20064;-64
2023/09/24 06:16:07;;;;;;;2.28;2.28;;;;;;;22.14;75.28;96951.59;4890047;29;20067;-64
2023/09/24 06:18:34;;;;;;;2.63;2.53;;;;;;;22.38;75.49;96955.66;4907239;29;20076;-65
2023/09/24 06:21:02;;;;;;;2.30;2.30;;;;;;;22.61;73.18;96957.41;4893638;29;20067;-65
2023/09/24 06:23:30;;;;;;;2.70;2.60;;;;;;;22.63;73.22;96948.47;4910704;29;20060;-67
2023/09/24 06:25:58;;;;;;;2.70;2.60;;;;;;;22.53;72.70;96927.00;4894379;29;20059;-65
2023/09/24 06:28:25;;;;;;;2.78;2.67;;;;;;;22.58;71.92;96884.09;4894001;29;20056;-65
2023/09/24 06:30:59;;;;;;;2.60;2.50;;;;;;;22.83;71.43;96907.47;4911096;29;20064;-65
2023/09/24 06:33:27;;;;;;;2.58;2.47;;;;;;;23.02;72.24;96964.94;4911000;29;20147;-67
2023/09/24 06:35:54;;;;;;;2.50;2.40;;;;;;;23.15;72.45;96962.91;4910511;29;20052;-69
2023/09/24 06:38:21;;;;;;;2.20;2.20;;;;;;;22.69;73.80;96963.63;4911249;29;20063;-66
2023/09/24 06:41:02;;;;;;;2.58;2.47;;;;;;;23.16;72.47;96958.81;4910837;29;20107;-66
2023/09/24 06:43:30;;;;;;;2.42;2.40;;;;;;;23.39;71.80;96978.28;4911392;29;20058;-68
2023/09/24 06:45:57;;;;;;;2.78;2.67;;;;;;;23.51;71.48;96969.75;4893706;29;20436;-67
2023/09/24 06:48:25;;;;;;;2.75;2.65;;;;;;;23.67;70.06;96960.28;4910989;29;20064;-69
2023/09/24 06:50:55;;;;;;;2.60;2.50;;;;;;;23.69;70.85;96952.94;4882900;29;20064;-68
2023/09/24 06:53:23;;;;;;;2.78;2.67;;;;;;;23.75;69.26;96916.34;4892001;29;20428;-68
2023/09/24 06:55:49;;;;;;;2.88;2.78;;;;;;;23.53;68.92;96853.34;4892337;29;20136;-67
2023/09/24 06:58:16;;;;;;;3.13;3.03;;;;;;;24.14;68.54;96966.66;4891663;29;20060;-67
2023/09/24 07:00:43;;;;;;;2.60;2.50;;;;;;;23.97;69.73;96958.81;4874586;29;20067;-68
2023/09/24 07:03:10;;;;;;;2.97;2.88;;;;;;;24.56;68.06;96950.88;4891638;29;20059;-67
2023/09/24 07:05:37;;;;;;;3.03;2.92;;;;;;;24.56;67.64;96930.25;4891242;29;20064;-68
2023/09/24 07:08:04;;;;;;;2.92;2.83;;;;;;;23.20;67.14;96713.59;4874436;29;20127;-69
2023/09/24 07:10:31;;;;;;;3.00;2.90;;;;;;;24.23;66.63;96873.31;4891501;29;20440;-68
2023/09/24 07:12:58;;;;;;;3.05;2.95;;;;;;;25.04;65.58;96955.81;4891564;29;20056;-67
2023/09/24 07:15:24;;;;;;;3.00;2.90;;;;;;;25.25;65.24;96954.94;4891559;29;20156;-67
2023/09/24 07:17:51;;;;;;;3.17;3.08;;;;;;;25.39;63.82;96964.13;4891730;29;20063;-68
2023/09/24 07:20:20;;;;;;;3.20;3.10;;;;;;;25.15;64.68;96933.47;4891516;29;20057;-68
2023/09/24 07:22:47;;;;;;;2.90;2.80;;;;;;;25.18;63.37;96934.59;4874384;29;20072;-70
2023/09/24 07:25:14;;;;;;;3.75;3.65;;;;;;;25.15;62.99;96888.09;4891118;29;20558;-68
2023/09/24 07:27:41;;;;;;;3.20;3.10;;;;;;;25.22;61.98;96921.84;4874284;29;20096;-68
2023/09/24 07:30:09;;;;;;;3.15;3.05;;;;;;;24.92;60.60;96934.06;4890393;29;20061;-67
2023/09/24 07:32:37;;;;;;;3.17;3.08;;;;;;;24.84;62.18;96929.94;4890519;29;20068;-68
2023/09/24 07:35:05;;;;;;;3.30;3.20;;;;;;;24.67;61.36;96905.94;4890603;29;20086;-68
2023/09/24 07:37:32;;;;;;;3.28;3.17;;;;;;;23.96;60.88;96717.47;4891495;29;20155;-68
2023/09/24 07:39:58;;;;;;;3.17;3.08;;;;;;;25.07;60.87;96943.53;4874542;29;20138;-68
2023/09/24 07:42:25;;;;;;;3.30;3.20;;;;;;;25.68;59.76;96947.44;4880943;29;20619;-68
2023/09/24 07:44:52;;;;;;;3.70;3.60;;;;;;;25.74;58.75;96911.47;4889633;29;20485;-67
2023/09/24 07:47:19;;;;;;;3.38;3.28;;;;;;;25.84;59.31;96944.28;4890712;29;20057;-67
2023/09/24 07:49:46;;;;;;;3.55;3.45;;;;;;;25.60;57.65;96849.69;4875650;29;20076;-67
2023/09/24 07:52:14;;;;;;;3.38;3.28;;;;;;;26.28;58.19;96952.00;4909767;29;20124;-68
2023/09/24 07:54:41;;;;;;;3.60;3.50;;;;;;;26.15;56.93;96856.88;4892379;29;20056;-69
2023/09/24 07:57:07;;;;;;;3.60;3.50;;;;;;;26.28;55.55;96905.75;4909569;29;20059;-69
2023/09/24 07:59:34;;;;;;;3.47;3.38;;;;;;;26.27;54.67;96938.28;4903496;29;20144;-67
2023/09/24 08:02:02;;;;;;;3.50;3.40;;;;;;;26.57;54.61;96934.41;4909625;29;20068;-69
2023/09/24 08:04:28;;;;;;;3.90;3.80;;;;;;;26.29;53.21;96842.78;4892447;29;20099;-69
2023/09/24 08:06:55;;;;;;;3.40;3.30;;;;;;;26.97;52.56;96909.28;4909345;29;20079;-70
2023/09/24 08:09:22;;;;;;;3.33;3.22;;;;;;;27.32;51.06;96924.59;4909081;29;20147;-68
2023/09/24 08:11:54;;;;;;;3.55;3.45;;;;;;;27.44;49.92;96934.19;4892654;29;20060;-69
2023/09/24 08:14:21;;;;;;;3.78;3.67;;;;;;;27.16;49.80;96885.16;4891921;29;20124;-68
2023/09/24 08:16:48;;;;;;;4.20;4.10;;;;;;;27.62;49.36;96929.13;4909234;29;20071;-69
2023/09/24 08:19:15;;;;;;;3.55;3.45;;;;;;;27.90;48.96;96924.81;4892259;29;20520;-67
2023/09/24 08:21:41;;;;;;;4.00;3.90;;;;;;;27.67;48.46;96862.19;4909339;29;20056;-68
2023/09/24 08:24:08;;;;;;;4.07;3.97;;;;;;;25.68;47.72;96556.66;4909396;29;20064;-69
2023/09/24 08:26:36;;;;;;;4.30;4.20;;;;;;;28.30;46.83;96926.34;4909324;29;20067;-69
2023/09/24 08:29:06;;;;;;;4.35;4.25;;;;;;;27.93;46.39;96851.88;4909042;29;20360;-67
2023/09/24 08:31:34;;;;;;;4.10;4.00;;;;;;;28.07;46.88;96856.78;4908764;29;20541;-68
2023/09/24 08:34:02;;;;;;;3.90;3.80;;;;;;;28.59;45.31;96914.97;4908780;29;20499;-68
2023/09/24 08:36:29;;;;;;;3.95;3.85;;;;;;;28.29;45.11;96856.38;4908963;29;20070;-68
2023/09/24 08:38:56;;;;;;;4.32;4.22;;;;;;;28.83;45.90;96907.06;4908578;29;20485;-68
2023/09/24 08:41:24;;;;;;;4.07;3.97;;;;;;;28.57;46.09;96851.94;4891798;29;20075;-68
2023/09/24 08:43:55;;;;;;;3.75;3.65;;;;;;;28.59;44.88;96818.84;4908328;29;20135;-69
2023/09/24 08:46:24;;;;;;;4.40;4.30;;;;;;;29.22;44.86;96877.06;4891595;29;20068;-68
2023/09/24 08:48:52;;;;;;;4.55;4.45;;;;;;;29.18;44.76;96865.09;4908742;29;20064;-68
2023/09/24 08:51:20;;;;;;;4.70;4.60;;;;;;;28.84;43.72;96805.97;4878595;29;20060;-69
2023/09/24 08:53:46;;;;;;;4.32;4.22;;;;;;;29.49;43.18;96890.94;4889861;29;20065;-69
2023/09/24 08:56:17;;;;;;;4.20;4.10;;;;;;;29.06;43.76;96898.38;4889735;29;20056;-69
2023/09/24 08:58:44;;;;;;;4.57;4.47;;;;;;;29.44;43.29;96894.50;4889572;29;20064;-69
2023/09/24 09:01:12;;;;;;;4.30;4.20;;;;;;;29.67;42.45;96890.66;4889302;29;20072;-67
2023/09/24 09:03:39;;;;;;;4.55;4.45;;;;;;;30.04;42.17;96903.03;4889615;29;20066;-67
2023/09/24 09:06:07;;;;;;;4.68;4.57;;;;;;;29.98;41.97;96865.06;4889603;29;20057;-69
2023/09/24 09:08:52;;;;;;;4.47;4.38;;;;;;;28.80;42.08;96680.69;4872953;29;20231;-70
2023/09/24 09:11:21;;;;;;;4.57;4.47;;;;;;;29.77;42.38;96900.66;4872631;29;20052;-69
2023/09/24 09:13:48;;;;;;;4.65;4.55;;;;;;;30.15;41.90;96886.00;4872577;29;20056;-69
2023/09/24 09:16:22;;;;;;;4.78;4.68;;;;;;;30.14;41.67;96877.94;4888903;29;20491;-68
2023/09/24 09:19:02;;;;;;;4.25;4.15;;;;;;;29.71;42.87;96879.81;4889304;29;20068;-67
2023/09/24 09:21:29;;;;;;;4.40;4.30;;;;;;;29.86;41.35;96868.31;4872324;29;20062;-69
2023/09/24 09:23:56;;;;;;;4.43;4.32;;;;;;;28.67;42.60;96802.09;4889445;29;20064;-68
2023/09/24 09:26:28;;;;;;;4.53;4.43;;;;;;;28.88;42.91;96778.03;4872489;29;20064;-68
2023/09/24 09:28:55;;;;;;;4.03;3.92;;;;;;;28.95;42.80;96794.69;4872255;29;20133;-68
2023/09/24 09:31:22;;;;;;;4.35;4.25;;;;;;;29.28;42.42;96795.16;4872357;29;20060;-68
2023/09/24 09:33:50;;;;;;;4.38;4.28;;;;;;;29.39;42.60;96818.13;4889284;29;20048;-69
2023/09/24 09:36:24;;;;;;;4.70;4.60;;;;;;;29.85;41.76;96870.34;4889117;29;20067;-68
2023/09/24 09:38:52;;;;;;;4.57;4.47;;;;;;;29.85;41.68;96835.28;4889339;29;20064;-68
2023/09/24 09:41:20;;;;;;;4.25;4.15;;;;;;;30.08;41.32;96863.59;4871704;29;20060;-69
2023/09/24 09:43:48;;;;;;;4.45;4.35;;;;;;;29.42;42.04;96814.28;4887586;29;20556;-70
2023/09/24 09:46:23;;;;;;;4.60;4.50;;;;;;;30.22;41.36;96865.59;4888627;29;20068;-70
2023/09/24 09:48:54;;;;;;;4.78;4.68;;;;;;;30.00;41.85;96862.50;4889553;29;20064;-70
2023/09/24 09:51:24;;;;;;;4.43;4.32;;;;;;;29.91;41.83;96848.34;4900698;29;20052;-69
2023/09/24 09:53:54;;;;;;;4.45;4.35;;;;;;;29.86;41.93;96863.34;4906889;29;20060;-69
2023/09/24 09:56:23;;;;;;;4.60;4.50;;;;;;;29.23;42.59;96833.75;4907378;29;20108;-69
2023/09/24 09:58:51;;;;;;;4.35;4.25;;;;;;;28.87;43.47;96824.94;4907819;29;20056;-71
2023/09/24 10:01:20;;;;;;;4.28;4.18;;;;;;;28.28;43.80;96792.13;4907707;29;20213;-70
2023/09/24 10:03:53;;;;;;;4.20;4.10;;;;;;;29.04;43.80;96854.47;4907895;29;20063;-69
2023/09/24 10:06:22;;;;;;;4.47;4.38;;;;;;;29.48;43.14;96843.69;4907489;29;20147;-70
2023/09/24 10:08:49;;;;;;;4.35;4.25;;;;;;;29.69;42.53;96868.09;4907964;29;20520;-71
2023/09/24 10:11:32;;;;;;;4.63;4.53;;;;;;;29.97;42.41;96852.03;4907405;29;20143;-71
2023/09/24 10:14:04;;;;;;;4.43;4.32;;;;;;;29.93;41.87;96857.22;4908224;29;20067;-70
2023/09/24 10:16:38;;;;;;;4.10;4.00;;;;;;;29.75;42.51;96854.66;4907491;29;20556;-70
2023/09/24 10:19:13;;;;;;;4.20;4.10;;;;;;;29.92;41.67;96809.16;4890548;29;20143;-71
2023/09/24 10:21:45;;;;;;;4.35;4.25;;;;;;;30.62;41.09;96850.34;4890620;29;20942;-71
2023/09/24 10:24:14;;;;;;;4.47;4.38;;;;;;;30.69;40.44;96839.22;4907652;29;20151;-72
2023/09/24 10:26:49;;;;;;;4.20;4.10;;;;;;;29.68;40.85;96703.75;4907159;29;20143;-72
2023/09/24 10:29:18;;;;;;;4.50;4.40;;;;;;;30.70;40.34;96840.78;4907425;29;20072;-74
2023/09/24 10:32:06;;;;;;;4.70;4.60;;;;;;;30.95;40.02;96834.22;4890310;29;20072;-74
2023/09/24 10:34:54;;;;;;;4.35;4.25;;;;;;;30.75;40.29;96831.44;4907846;29;20070;-74
2023/09/24 10:37:23;;;;;;;4.63;4.53;;;;;;;30.69;39.88;96809.81;4897059;29;20427;-74
2023/09/24 10:40:05;;;;;;;5.05;4.95;;;;;;;31.19;40.08;96833.06;4906178;29;20258;-75
2023/09/24 10:42:33;;;;;;;4.60;4.50;;;;;;;31.36;39.20;96831.06;4907094;29;20068;-74
2023/09/24 10:45:02;;;;;;;4.60;4.50;;;;;;;30.98;40.07;96833.19;4907862;29;20413;-74
2023/09/24 10:47:30;;;;;;;5.07;4.97;;;;;;;31.40;39.40;96823.00;4890369;29;20063;-76
2023/09/24 10:50:09;;;;;;;4.35;4.25;;;;;;;31.81;38.54;96824.19;4907431;29;20063;-76
2023/09/24 10:52:48;;;;;;;4.80;4.70;;;;;;;31.56;39.27;96819.44;4871638;29;20074;-76
2023/09/24 10:55:27;;;;;;;4.85;4.75;;;;;;;31.23;39.18;96814.34;4869894;29;20069;-76
2023/09/24 10:57:55;;;;;;;4.60;4.50;;;;;;;31.16;39.89;96828.34;4853060;29;20156;-76
2023/09/24 11:00:25;;;;;;;4.60;4.50;;;;;;;30.69;39.36;96753.41;4852622;29;20117;-76
2023/09/24 11:02:57;;;;;;;4.70;4.60;;;;;;;31.12;39.63;96819.22;4853005;29;20552;-76
2023/09/24 11:05:26;;;;;;;4.60;4.50;;;;;;;31.02;39.45;96810.06;4870457;29;20091;-76
2023/09/24 11:07:53;;;;;;;4.55;4.45;;;;;;;30.75;39.52;96779.97;4873501;29;20101;-75
2023/09/24 11:10:25;;;;;;;4.72;4.63;;;;;;;31.10;39.03;96727.34;4856354;29;20053;-76
2023/09/24 11:12:56;;;;;;;4.72;4.63;;;;;;;30.91;38.14;96662.00;4872890;29;20367;-76
2023/09/24 11:15:25;;;;;;;4.32;4.22;;;;;;;30.69;38.40;96587.50;4872567;29;20061;-75
2023/09/24 11:17:52;;;;;;;4.72;4.63;;;;;;;31.57;38.29;96772.31;4872643;29;20117;-75
2023/09/24 11:20:23;;;;;;;4.78;4.68;;;;;;;30.85;38.29;96715.56;4855908;29;20057;-76
2023/09/24 11:23:01;;;;;;;4.43;4.32;;;;;;;31.62;38.02;96783.00;4873051;29;20505;-75
2023/09/24 11:25:30;;;;;;;4.28;4.18;;;;;;;31.49;37.59;96756.94;4872287;29;20084;-76
2023/09/24 11:28:00;;;;;;;4.55;4.45;;;;;;;32.12;37.60;96799.00;4855699;29;20165;-75
2023/09/24 11:30:40;;;;;;;4.53;4.43;;;;;;;32.38;37.11;96778.72;4872118;29;20068;-76
2023/09/24 11:33:16;;;;;;;4.72;4.63;;;;;;;32.41;37.39;96780.53;4855991;29;20064;-76
2023/09/24 11:35:47;;;;;;;4.72;4.63;;;;;;;32.27;37.04;96781.56;4856080;29;20057;-77
2023/09/24 11:38:27;;;;;;;4.32;4.22;;;;;;;31.90;37.42;96792.47;4855745;29;20061;-75
2023/09/24 11:41:05;;;;;;;4.40;4.30;;;;;;;32.04;36.71;96775.03;4874287;29;20453;-76
2023/09/24 11:44:00;;;;;;;5.00;4.90;;;;;;;32.00;36.73;96774.50;4891255;29;20160;-76